Time;durP1;ratioP1;P1;durP2;ratioP2;P2;SDS_P1;SDS_P2;PMS_P1;PMS_P2;Temp;Humidity;BMP_temperature;BMP_pressure;BME280_temperature;BME280_humidity;BME280_pressure;Samples;Min_cycle;Max_cycle;Signal;HPM_P1;HPM_P2
2022/08/20 00:02:23;;;;;;;11.90;8.07;;;;;;;-145.18;100.00;46660.41;5031624;28;20034;-74
2022/08/20 00:04:49;;;;;;;15.77;9.13;;;;;;;-145.18;100.00;46660.41;5031939;28;20124;-74
2022/08/20 00:07:14;;;;;;;19.20;9.50;;;;;;;-145.18;100.00;46660.41;5031571;28;20528;-75
2022/08/20 00:09:41;;;;;;;23.00;10.30;;;;;;;-145.18;100.00;46660.41;5032013;28;20025;-75
2022/08/20 00:12:09;;;;;;;17.90;10.43;;;;;;;-145.18;100.00;46660.41;5031741;28;20108;-74
2022/08/20 00:14:35;;;;;;;16.30;10.07;;;;;;;-145.18;100.00;46660.41;5031476;28;20029;-74
2022/08/20 00:17:01;;;;;;;17.73;9.27;;;;;;;-145.18;100.00;46660.41;5013726;28;20033;-74
2022/08/20 00:19:27;;;;;;;15.60;9.33;;;;;;;-145.18;100.00;46660.41;5031486;28;20041;-74
2022/08/20 00:21:52;;;;;;;20.90;9.33;;;;;;;-145.18;100.00;46660.41;5031714;28;20440;-74
2022/08/20 00:24:18;;;;;;;15.17;9.40;;;;;;;-145.18;100.00;46660.41;5031748;28;20048;-74
2022/08/20 00:26:43;;;;;;;18.43;9.50;;;;;;;-145.18;100.00;46660.41;5031096;28;20034;-74
2022/08/20 00:29:08;;;;;;;26.37;9.30;;;;;;;-145.18;100.00;46660.41;5031481;28;20405;-74
2022/08/20 00:31:34;;;;;;;19.07;9.40;;;;;;;-145.18;100.00;46658.44;5031109;28;20048;-74
2022/08/20 00:33:59;;;;;;;17.70;10.03;;;;;;;-145.18;100.00;46660.41;5031616;28;20094;-75
2022/08/20 00:36:24;;;;;;;21.13;9.80;;;;;;;-145.18;100.00;46660.41;5031139;28;20061;-75
2022/08/20 00:38:50;;;;;;;18.90;10.13;;;;;;;-145.18;100.00;46658.44;5031194;28;20072;-75
2022/08/20 00:41:22;;;;;;;19.97;9.70;;;;;;;-145.18;100.00;46660.41;5031197;28;20462;-74
2022/08/20 00:44:12;;;;;;;18.00;10.30;;;;;;;-145.18;100.00;46660.41;5031225;28;20033;-75
2022/08/20 00:46:39;;;;;;;15.43;10.10;;;;;;;-145.18;100.00;46658.44;5023534;28;20487;-75
2022/08/20 00:49:07;;;;;;;22.23;9.83;;;;;;;-145.18;100.00;46660.41;5031311;28;20042;-75
2022/08/20 00:51:39;;;;;;;16.37;9.30;;;;;;;-145.18;100.00;46660.41;5030899;28;20508;-74
2022/08/20 00:54:11;;;;;;;15.57;9.03;;;;;;;-145.18;100.00;46660.41;5031250;28;20057;-74
2022/08/20 00:56:37;;;;;;;12.83;8.17;;;;;;;-145.18;100.00;46660.41;5030822;28;20025;-74
2022/08/20 00:59:10;;;;;;;13.50;8.60;;;;;;;-145.18;100.00;46660.41;5031025;28;20833;-74
2022/08/20 01:01:37;;;;;;;12.23;8.47;;;;;;;-145.18;100.00;46660.41;5030668;28;20532;-74
2022/08/20 01:04:04;;;;;;;18.20;9.67;;;;;;;-145.18;100.00;46660.41;5030895;28;20081;-74
2022/08/20 01:06:30;;;;;;;19.33;9.93;;;;;;;-145.18;100.00;46660.41;5030364;28;20039;-74
2022/08/20 01:08:56;;;;;;;74.37;6.83;;;;;;;-145.18;100.00;46660.41;5030795;28;20030;-74
2022/08/20 01:11:30;;;;;;;12.20;7.47;;;;;;;-145.18;100.00;46660.41;5030920;28;20381;-74
2022/08/20 01:13:57;;;;;;;18.70;9.37;;;;;;;-145.18;100.00;46660.41;5030882;28;20041;-74
2022/08/20 01:16:28;;;;;;;14.27;8.47;;;;;;;-145.18;100.00;46660.41;5030420;28;20512;-74
2022/08/20 01:18:56;;;;;;;14.07;7.07;;;;;;;-145.18;100.00;46660.41;5012913;28;20021;-74
2022/08/20 01:21:26;;;;;;;17.37;7.17;;;;;;;-145.18;100.00;46660.41;5030266;28;20394;-74
2022/08/20 01:24:10;;;;;;;10.80;5.60;;;;;;;-145.18;100.00;46660.41;5030411;28;20055;-74
2022/08/20 01:26:41;;;;;;;15.03;7.50;;;;;;;-145.18;100.00;46660.41;5030124;28;20091;-74
2022/08/20 01:29:16;;;;;;;14.20;7.37;;;;;;;-145.18;100.00;46660.41;5030626;28;20017;-74
2022/08/20 01:31:42;;;;;;;18.65;8.52;;;;;;;-145.18;100.00;46660.41;5030087;28;20443;-74
2022/08/20 01:34:11;;;;;;;17.00;8.50;;;;;;;-145.18;100.00;46660.41;5030684;28;20041;-74
2022/08/20 01:36:43;;;;;;;15.43;9.90;;;;;;;-145.18;100.00;46660.41;5029845;28;20075;-74
2022/08/20 01:39:12;;;;;;;16.67;9.73;;;;;;;-145.18;100.00;46660.41;5029834;28;20472;-73
2022/08/20 01:42:16;;;;;;;19.37;7.53;;;;;;;-145.18;100.00;46660.41;5029977;28;20021;-73
2022/08/20 01:44:43;;;;;;;15.67;8.37;;;;;;;-145.18;100.00;46660.41;4986300;28;20053;-74
2022/08/20 01:47:11;;;;;;;12.13;8.63;;;;;;;-145.18;100.00;46660.41;5029949;28;20116;-73
2022/08/20 01:49:42;;;;;;;12.73;8.27;;;;;;;-145.18;100.00;46660.41;5030281;28;20034;-73
2022/08/20 01:52:11;;;;;;;15.53;9.30;;;;;;;-145.18;100.00;46660.41;5029932;28;20048;-74
2022/08/20 01:54:37;;;;;;;158.33;11.20;;;;;;;-145.18;100.00;46660.41;5029751;28;20029;-73
2022/08/20 01:57:13;;;;;;;20.63;8.03;;;;;;;-145.18;100.00;46660.41;5029739;28;20036;-73
2022/08/20 01:59:39;;;;;;;15.87;9.33;;;;;;;-145.18;100.00;46660.41;5030015;28;20128;-74
2022/08/20 02:02:06;;;;;;;16.43;9.03;;;;;;;-145.18;100.00;46660.41;5305617;23;21290;-72
2022/08/20 02:04:32;;;;;;;17.20;9.13;;;;;;;-145.18;100.00;46660.41;5024934;28;20140;-72
2022/08/20 02:07:00;;;;;;;15.50;8.90;;;;;;;-145.18;100.00;46660.41;5029111;28;20053;-72
2022/08/20 02:09:34;;;;;;;33.70;9.70;;;;;;;-145.18;100.00;46660.41;5029766;28;20033;-72
2022/08/20 02:12:01;;;;;;;17.87;7.70;;;;;;;-145.18;100.00;46660.41;5029741;28;20044;-72
2022/08/20 02:14:27;;;;;;;26.63;8.67;;;;;;;-145.18;100.00;46660.41;5030081;28;20029;-73
2022/08/20 02:16:53;;;;;;;15.27;8.93;;;;;;;-145.18;100.00;46658.44;5029738;28;20049;-73
2022/08/20 02:19:24;;;;;;;14.17;8.93;;;;;;;-145.18;100.00;46660.41;5030443;28;20050;-73
2022/08/20 02:21:53;;;;;;;15.30;9.23;;;;;;;-145.18;100.00;46660.41;5029708;28;20115;-73
2022/08/20 02:24:19;;;;;;;19.60;10.00;;;;;;;-145.18;100.00;46660.41;5030033;28;20041;-73
2022/08/20 02:26:44;;;;;;;17.37;8.17;;;;;;;-145.18;100.00;46656.50;5029912;28;20095;-74
2022/08/20 02:29:11;;;;;;;27.13;9.40;;;;;;;-145.18;100.00;46660.41;5029803;28;20040;-73
2022/08/20 02:31:38;;;;;;;21.03;11.03;;;;;;;-145.18;100.00;46658.44;5030248;28;20037;-74
2022/08/20 02:34:08;;;;;;;22.50;12.20;;;;;;;-145.18;100.00;46660.41;5029782;28;20026;-73
2022/08/20 02:36:35;;;;;;;25.23;13.23;;;;;;;-145.18;100.00;46658.44;5030279;28;20044;-73
2022/08/20 02:39:01;;;;;;;20.33;12.77;;;;;;;-145.18;100.00;46660.41;5029849;28;20121;-73
2022/08/20 02:41:26;;;;;;;21.00;13.00;;;;;;;-145.18;100.00;46660.41;5030260;28;20087;-73
2022/08/20 02:43:52;;;;;;;25.37;14.73;;;;;;;-145.18;100.00;46658.44;5029657;28;20041;-73
2022/08/20 02:46:18;;;;;;;26.23;15.23;;;;;;;-145.18;100.00;46658.44;5030404;28;20116;-73
2022/08/20 02:48:43;;;;;;;22.87;15.40;;;;;;;-145.18;100.00;46656.50;5029678;28;20025;-73
2022/08/20 02:51:09;;;;;;;22.90;15.07;;;;;;;-145.18;100.00;46660.41;5031401;28;20047;-73
2022/08/20 02:53:40;;;;;;;21.73;14.03;;;;;;;-145.18;100.00;46658.44;5033508;28;20025;-73
2022/08/20 02:56:08;;;;;;;20.60;14.23;;;;;;;-145.18;100.00;46658.44;5033274;28;20388;-73
2022/08/20 02:58:34;;;;;;;19.43;14.90;;;;;;;-145.18;100.00;46656.50;5032186;28;20552;-73
2022/08/20 03:01:00;;;;;;;18.70;14.23;;;;;;;-145.18;100.00;46658.44;5033149;28;20028;-73
2022/08/20 03:03:26;;;;;;;23.37;15.27;;;;;;;-145.18;100.00;46656.50;5032895;28;20180;-73
2022/08/20 03:05:54;;;;;;;25.00;14.83;;;;;;;-145.18;100.00;46660.41;5033060;28;20109;-73
2022/08/20 03:08:20;;;;;;;21.43;14.13;;;;;;;-145.18;100.00;46660.41;5032825;28;20042;-73
2022/08/20 03:10:47;;;;;;;18.23;13.47;;;;;;;-145.18;100.00;46654.53;5033086;28;20029;-73
2022/08/20 03:13:13;;;;;;;20.73;13.97;;;;;;;-145.18;100.00;46660.41;5032743;28;20041;-73
2022/08/20 03:15:46;;;;;;;18.37;13.43;;;;;;;-145.18;100.00;46658.44;5033132;28;20041;-73
2022/08/20 03:18:13;;;;;;;20.83;13.23;;;;;;;-145.18;100.00;46656.50;5032956;28;20394;-73
2022/08/20 03:20:38;;;;;;;19.40;13.17;;;;;;;-145.18;100.00;46660.41;5033421;28;20037;-73
2022/08/20 03:23:04;;;;;;;18.53;12.67;;;;;;;-145.18;100.00;46660.41;5032538;28;20036;-73
2022/08/20 03:25:30;;;;;;;20.17;12.47;;;;;;;-145.18;100.00;46660.41;5033131;28;20044;-73
2022/08/20 03:27:56;;;;;;;24.43;12.67;;;;;;;-145.18;100.00;46658.44;5032359;28;20033;-73
2022/08/20 03:30:24;;;;;;;20.90;12.07;;;;;;;-145.18;100.00;46660.41;5032809;28;20060;-73
2022/08/20 03:32:49;;;;;;;17.17;11.27;;;;;;;-145.18;100.00;46656.50;5020238;28;20041;-73
2022/08/20 03:35:19;;;;;;;22.67;11.03;;;;;;;-145.18;100.00;46660.41;5013081;28;20045;-73
2022/08/20 03:37:45;;;;;;;18.40;10.70;;;;;;;-145.18;100.00;46660.41;5012815;28;20037;-74
2022/08/20 03:40:15;;;;;;;22.47;11.53;;;;;;;-145.18;100.00;46660.41;5012588;28;20390;-73
2022/08/20 03:42:41;;;;;;;20.77;10.70;;;;;;;-145.18;100.00;46660.41;5012348;28;20060;-73
2022/08/20 03:45:08;;;;;;;15.03;9.97;;;;;;;-145.18;100.00;46660.41;5012437;28;20049;-74
2022/08/20 03:47:33;;;;;;;14.30;9.33;;;;;;;-145.18;100.00;46660.41;5012504;28;20033;-73
2022/08/20 03:50:00;;;;;;;15.53;10.07;;;;;;;-145.18;100.00;46660.41;5011338;28;20062;-73
2022/08/20 03:52:28;;;;;;;15.77;10.03;;;;;;;-145.18;100.00;46660.41;5012516;28;20069;-73
2022/08/20 03:54:53;;;;;;;18.60;9.70;;;;;;;-145.18;100.00;46660.41;5012810;28;20041;-73
2022/08/20 03:57:18;;;;;;;13.83;8.67;;;;;;;-145.18;100.00;46660.41;5012291;28;20092;-73
2022/08/20 03:59:44;;;;;;;20.07;8.80;;;;;;;-145.18;100.00;46660.41;5012901;28;20041;-73
2022/08/20 04:02:11;;;;;;;19.27;8.13;;;;;;;-145.18;100.00;46631.09;5011366;28;20053;-73
2022/08/20 04:04:39;;;;;;;15.63;8.53;;;;;;;-145.18;100.00;46660.41;5028764;28;20036;-73
2022/08/20 04:07:13;;;;;;;14.77;8.20;;;;;;;-145.18;100.00;46660.41;5031646;28;20029;-73
2022/08/20 04:09:38;;;;;;;18.17;9.20;;;;;;;-145.18;100.00;46660.41;5031984;28;20042;-73
2022/08/20 04:12:05;;;;;;;18.27;8.53;;;;;;;-145.18;100.00;46660.41;5031762;28;20105;-73
2022/08/20 04:14:31;;;;;;;17.70;8.60;;;;;;;-145.18;100.00;46660.41;5032072;28;20397;-73
2022/08/20 04:16:57;;;;;;;16.63;9.47;;;;;;;-145.18;100.00;46631.09;5031643;28;20041;-73
2022/08/20 04:19:22;;;;;;;22.13;9.63;;;;;;;-145.18;100.00;46660.41;5031611;28;20258;-73
2022/08/20 04:21:47;;;;;;;14.37;7.70;;;;;;;-145.18;100.00;46660.41;5031968;28;20122;-73
2022/08/20 04:24:14;;;;;;;12.87;8.40;;;;;;;-145.18;100.00;46635.00;5031483;28;20061;-73
2022/08/20 04:26:41;;;;;;;12.47;7.93;;;;;;;-145.18;100.00;46660.41;5031989;28;20048;-73
2022/08/20 04:29:07;;;;;;;18.87;7.60;;;;;;;-145.18;100.00;46638.91;5031198;28;20509;-73
2022/08/20 04:31:33;;;;;;;19.93;8.60;;;;;;;-145.18;100.00;46635.00;5031753;28;20029;-73
2022/08/20 04:34:03;;;;;;;15.90;7.90;;;;;;;-145.18;100.00;46660.41;5031281;28;20253;-73
2022/08/20 04:36:28;;;;;;;11.53;6.77;;;;;;;-145.18;100.00;46636.94;5031690;28;20032;-74
2022/08/20 04:38:54;;;;;;;15.33;7.30;;;;;;;-145.18;100.00;46636.94;5030044;28;20029;-74
2022/08/20 04:41:20;;;;;;;14.57;7.27;;;;;;;-145.18;100.00;46642.81;5031565;28;20119;-74
2022/08/20 04:43:45;;;;;;;19.30;8.20;;;;;;;-145.18;100.00;46640.88;5031485;28;20033;-74
2022/08/20 04:46:12;;;;;;;17.30;8.13;;;;;;;-145.18;100.00;46640.88;5031292;28;20396;-74
2022/08/20 04:48:39;;;;;;;18.10;8.83;;;;;;;-145.18;100.00;46635.00;5010443;28;20109;-73
2022/08/20 04:51:07;;;;;;;15.50;8.07;;;;;;;-145.18;100.00;46636.94;5004599;28;20022;-73
2022/08/20 04:53:33;;;;;;;19.40;8.47;;;;;;;-145.18;100.00;46638.91;4999674;28;20040;-73
2022/08/20 04:56:00;;;;;;;16.53;8.47;;;;;;;-145.18;100.00;46635.00;5000168;28;20033;-73
2022/08/20 04:58:32;;;;;;;18.27;8.80;;;;;;;-145.18;100.00;46635.00;4998189;28;20081;-73
2022/08/20 05:01:02;;;;;;;13.97;7.87;;;;;;;-145.18;100.00;46633.06;4999939;28;20050;-74
2022/08/20 05:03:28;;;;;;;14.17;7.87;;;;;;;-145.18;100.00;46636.94;5000212;28;20046;-73
2022/08/20 05:05:55;;;;;;;14.47;7.40;;;;;;;-145.18;100.00;46635.00;5001609;28;20517;-74
2022/08/20 05:08:24;;;;;;;19.67;8.13;;;;;;;-145.18;100.00;46642.81;4991475;28;20494;-74
2022/08/20 05:10:50;;;;;;;14.73;7.77;;;;;;;-145.18;100.00;46636.94;4991442;28;20080;-74
2022/08/20 05:13:15;;;;;;;14.63;8.00;;;;;;;-145.18;100.00;46635.00;4999029;28;20025;-74
2022/08/20 05:15:44;;;;;;;14.33;7.77;;;;;;;-145.18;100.00;46640.88;4991729;28;20125;-73
2022/08/20 05:18:10;;;;;;;9.70;7.13;;;;;;;-145.18;100.00;46633.06;4991248;28;20068;-73
2022/08/20 05:20:40;;;;;;;10.77;7.90;;;;;;;-145.18;100.00;46633.06;4991762;28;20475;-74
2022/08/20 05:23:10;;;;;;;10.03;6.20;;;;;;;-145.18;100.00;46636.94;4990865;28;20524;-73
2022/08/20 05:25:37;;;;;;;6.43;4.70;;;;;;;-145.18;100.00;46635.00;4990431;28;20030;-74
2022/08/20 05:28:15;;;;;;;9.17;4.87;;;;;;;-145.18;100.00;46636.94;5003149;28;20034;-73
2022/08/20 05:30:43;;;;;;;8.83;3.93;;;;;;;-145.18;100.00;46636.94;5009718;28;20030;-74
2022/08/20 05:33:10;;;;;;;13.07;4.50;;;;;;;-145.18;100.00;46636.94;5008709;28;20026;-74
2022/08/20 05:35:38;;;;;;;9.00;5.07;;;;;;;-145.18;100.00;46635.00;5010750;28;20034;-74
2022/08/20 05:38:05;;;;;;;8.97;5.03;;;;;;;-145.18;100.00;46636.94;5010299;28;20040;-74
2022/08/20 05:40:31;;;;;;;12.37;5.00;;;;;;;-145.18;100.00;46635.00;5011016;28;20025;-73
2022/08/20 05:42:56;;;;;;;11.40;6.00;;;;;;;-145.18;100.00;46635.00;5008932;28;20083;-74
2022/08/20 05:45:22;;;;;;;9.97;5.57;;;;;;;-145.18;100.00;46635.00;5010722;28;20026;-74
2022/08/20 05:47:47;;;;;;;8.30;6.60;;;;;;;-145.18;100.00;46633.06;5010510;28;20034;-74
2022/08/20 05:50:15;;;;;;;11.37;7.20;;;;;;;-145.18;100.00;46635.00;5010510;28;20056;-74
2022/08/20 05:52:41;;;;;;;16.23;7.10;;;;;;;-145.18;100.00;46635.00;5010548;28;20058;-74
2022/08/20 05:55:09;;;;;;;16.77;7.80;;;;;;;-145.18;100.00;46636.94;5006490;28;20446;-74
2022/08/20 05:57:35;;;;;;;12.50;7.70;;;;;;;-145.18;100.00;46640.88;5009061;28;20080;-74
2022/08/20 06:00:03;;;;;;;13.03;7.83;;;;;;;-145.18;100.00;46633.06;5009682;28;20018;-74
2022/08/20 06:05:13;;;;;;;15.03;8.50;;;;;;;-145.18;100.00;46636.94;5004858;28;20105;-73
2022/08/20 06:07:38;;;;;;;14.10;8.17;;;;;;;-145.18;100.00;46636.94;5002963;28;20707;-73
2022/08/20 06:10:05;;;;;;;17.23;8.73;;;;;;;-145.18;100.00;46640.88;5004294;28;20030;-73
2022/08/20 06:12:31;;;;;;;13.27;8.07;;;;;;;-145.18;100.00;46638.91;5001204;28;20026;-73
2022/08/20 06:14:57;;;;;;;14.90;7.93;;;;;;;-145.18;100.00;46640.88;4998247;28;20092;-73
2022/08/20 06:17:22;;;;;;;20.03;8.00;;;;;;;-145.18;100.00;46638.91;5000967;28;20658;-73
2022/08/20 06:19:48;;;;;;;16.87;7.93;;;;;;;-145.18;100.00;46638.91;5001003;28;20117;-73
2022/08/20 06:22:14;;;;;;;19.97;8.20;;;;;;;-145.18;100.00;46636.94;4993084;28;20100;-71
2022/08/20 06:24:39;;;;;;;17.97;7.73;;;;;;;-145.18;100.00;46640.88;5010826;28;20030;-71
2022/08/20 06:27:05;;;;;;;16.57;7.83;;;;;;;-145.18;100.00;46635.00;5013241;28;20065;-70
2022/08/20 06:29:34;;;;;;;20.10;7.67;;;;;;;-145.18;100.00;46636.94;5013706;28;20037;-70
2022/08/20 06:32:00;;;;;;;20.47;7.90;;;;;;;-145.18;100.00;46642.81;5013532;28;20025;-70
2022/08/20 06:34:27;;;;;;;15.90;6.97;;;;;;;-145.18;100.00;46644.78;5012803;28;20520;-70
2022/08/20 06:36:53;;;;;;;11.57;6.57;;;;;;;-145.18;100.00;46648.69;5013577;28;20109;-69
2022/08/20 06:39:19;;;;;;;13.87;6.37;;;;;;;-145.18;100.00;46646.72;5012652;28;20030;-69
2022/08/20 06:41:44;;;;;;;13.73;6.97;;;;;;;-145.18;100.00;46650.63;5013551;28;20034;-70
2022/08/20 06:44:10;;;;;;;11.77;6.37;;;;;;;-145.18;100.00;46652.59;5012790;28;20026;-70
2022/08/20 06:46:37;;;;;;;11.80;5.63;;;;;;;-145.18;100.00;46658.44;5012681;28;20034;-70
2022/08/20 06:49:03;;;;;;;12.70;5.37;;;;;;;-145.18;100.00;46662.34;5012711;28;20037;-70
2022/08/20 06:51:29;;;;;;;14.80;5.03;;;;;;;-145.18;100.00;46666.25;5013256;28;20088;-70
2022/08/20 06:53:55;;;;;;;15.00;6.17;;;;;;;-145.18;100.00;46672.13;5012493;28;20034;-70
2022/08/20 06:56:20;;;;;;;15.97;4.63;;;;;;;-145.18;100.00;46677.97;5013406;28;20123;-70
2022/08/20 06:58:45;;;;;;;14.60;5.03;;;;;;;-145.18;100.00;46679.94;5011901;28;20030;-70
2022/08/20 07:01:12;;;;;;;11.27;4.80;;;;;;;-145.18;100.00;46676.03;5012909;28;20104;-70
2022/08/20 07:03:39;;;;;;;16.67;4.80;;;;;;;-145.18;100.00;46683.84;5012947;28;20042;-69
2022/08/20 07:06:06;;;;;;;14.90;5.53;;;;;;;-145.18;100.00;46681.88;5012849;28;20034;-69
2022/08/20 07:08:32;;;;;;;13.37;6.20;;;;;;;-145.18;100.00;46677.97;5012576;28;20037;-70
2022/08/20 07:10:58;;;;;;;16.10;5.57;;;;;;;-145.18;100.00;46681.88;5010858;28;20460;-70
2022/08/20 07:13:23;;;;;;;13.87;4.87;;;;;;;-145.18;100.00;46685.78;5004245;28;20101;-70
2022/08/20 07:15:49;;;;;;;16.23;5.87;;;;;;;-145.18;100.00;46681.88;5001791;28;20125;-70
2022/08/20 07:18:14;;;;;;;18.90;5.77;;;;;;;-145.18;100.00;46681.88;5005890;28;20088;-70
2022/08/20 07:20:40;;;;;;;12.37;5.40;;;;;;;-145.18;100.00;46683.84;4995383;28;20122;-70
2022/08/20 07:23:10;;;;;;;16.93;5.13;;;;;;;-145.18;100.00;46681.88;4992710;28;20054;-70
2022/08/20 07:25:35;;;;;;;16.83;5.40;;;;;;;-145.18;100.00;46679.94;4993634;28;20026;-70
2022/08/20 07:28:11;;;;;;;17.30;5.07;;;;;;;-145.18;100.00;46687.75;4992744;28;20546;-71
2022/08/20 07:33:21;;;;;;;15.03;5.20;;;;;;;-145.18;100.00;46683.84;4992721;28;20088;-70
2022/08/20 07:35:47;;;;;;;14.47;4.97;;;;;;;-145.18;100.00;46683.84;4992143;28;20034;-71
2022/08/20 07:38:23;;;;;;;12.70;5.07;;;;;;;-145.18;100.00;46685.78;4992762;28;20050;-70
2022/08/20 07:40:54;;;;;;;11.93;5.03;;;;;;;-145.18;100.00;46683.84;4993547;28;20276;-71
2022/08/20 07:43:22;;;;;;;7.90;4.37;;;;;;;-145.18;100.00;46687.75;4997508;28;20780;-70
2022/08/20 07:45:49;;;;;;;11.60;4.50;;;;;;;-145.18;100.00;46683.84;4998292;28;20033;-70
2022/08/20 07:48:15;;;;;;;13.33;3.80;;;;;;;-145.18;100.00;46654.53;5010029;28;20034;-71
2022/08/20 07:50:41;;;;;;;11.20;3.70;;;;;;;-145.18;100.00;46623.28;4992753;28;20041;-70
2022/08/20 07:53:06;;;;;;;10.23;4.53;;;;;;;-145.18;100.00;46670.16;4992351;28;20102;-71
2022/08/20 07:55:32;;;;;;;13.60;4.17;;;;;;;-145.18;100.00;46619.38;4992788;28;20133;-71
2022/08/20 07:58:05;;;;;;;11.97;3.50;;;;;;;-145.18;100.00;46560.78;4992014;28;20035;-71
2022/08/20 08:00:30;;;;;;;11.53;3.67;;;;;;;-145.18;100.00;46574.44;4992746;28;20435;-71
2022/08/20 08:02:56;;;;;;;12.27;3.63;;;;;;;-145.18;100.00;46574.44;4991919;28;20105;-71
2022/08/20 08:05:21;;;;;;;9.47;3.53;;;;;;;-145.18;100.00;46570.53;4992626;28;20490;-71
2022/08/20 08:07:47;;;;;;;13.53;4.60;;;;;;;-145.18;100.00;46566.63;4992367;28;20030;-71
2022/08/20 08:10:22;;;;;;;9.60;3.73;;;;;;;-145.18;100.00;46582.25;4992225;28;20093;-71
2022/08/20 08:12:53;;;;;;;9.13;2.73;;;;;;;-145.18;100.00;46586.16;4992235;28;20097;-71
2022/08/20 08:15:25;;;;;;;12.37;3.07;;;;;;;-145.18;100.00;46588.13;4991044;28;20398;-71
2022/08/20 08:17:54;;;;;;;14.90;3.00;;;;;;;-145.18;100.00;46597.88;4990964;28;20022;-71
2022/08/20 08:20:22;;;;;;;10.67;3.23;;;;;;;-145.18;100.00;46597.88;4992518;28;20027;-71
2022/08/20 08:22:47;;;;;;;12.40;3.07;;;;;;;-145.18;100.00;46613.50;4991837;28;20089;-71
2022/08/20 08:25:16;;;;;;;10.43;3.10;;;;;;;-145.18;100.00;46619.38;5006564;28;20045;-71
2022/08/20 08:27:42;;;;;;;10.20;2.40;;;;;;;-145.18;100.00;46658.44;5011716;28;20034;-71
2022/08/20 08:30:09;;;;;;;13.20;3.33;;;;;;;-145.18;100.00;46658.44;5011346;28;20021;-71
2022/08/20 08:32:36;;;;;;;8.97;2.20;;;;;;;-145.18;100.00;46668.22;5011816;28;20042;-71
2022/08/20 08:35:06;;;;;;;11.00;2.30;;;;;;;-145.18;100.00;46816.66;5011070;28;20080;-71
2022/08/20 08:37:31;;;;;;;9.00;2.37;;;;;;;-145.18;100.00;47148.75;5012017;28;20030;-71
2022/08/20 08:39:57;;;;;;;12.03;3.00;;;;;;;-145.18;100.00;46808.84;5011375;28;20052;-72
2022/08/20 08:42:27;;;;;;;8.90;2.53;;;;;;;-145.18;100.00;47152.66;5011574;28;20057;-72
2022/08/20 08:44:53;;;;;;;8.77;2.57;;;;;;;-145.18;100.00;47213.22;5009114;28;20026;-72
2022/08/20 08:47:33;;;;;;;8.00;2.37;;;;;;;-145.18;100.00;47262.06;5011049;28;20087;-72
2022/08/20 08:50:00;;;;;;;8.10;2.40;;;;;;;-145.18;100.00;47197.59;5011072;28;20368;-72
2022/08/20 08:52:33;;;;;;;11.50;2.37;;;;;;;-145.18;100.00;47203.47;5011189;28;20397;-72
2022/08/20 08:55:05;;;;;;;13.10;2.40;;;;;;;-145.18;100.00;47144.84;5010548;28;20049;-72
2022/08/20 08:57:31;;;;;;;6.97;2.00;;;;;;;-145.18;100.00;47160.47;5011350;28;20026;-72
2022/08/20 09:00:04;;;;;;;10.37;2.30;;;;;;;-145.18;100.00;47187.84;5010928;28;20387;-72
2022/08/20 09:02:30;;;;;;;11.27;2.70;;;;;;;-145.18;100.00;47180.03;5009994;28;20037;-72
2022/08/20 09:04:59;;;;;;;11.37;2.63;;;;;;;-145.18;100.00;47131.19;5010563;28;20026;-72
2022/08/20 09:07:29;;;;;;;8.07;2.50;;;;;;;-145.18;100.00;47133.13;5010517;28;20386;-72
2022/08/20 09:09:54;;;;;;;13.20;2.70;;;;;;;-145.18;100.00;47117.50;5010399;28;20064;-72
2022/08/20 09:12:23;;;;;;;8.13;2.37;;;;;;;-145.18;100.00;47133.13;5010825;28;20050;-72
2022/08/20 09:14:50;;;;;;;10.00;2.00;;;;;;;-145.18;100.00;47135.09;5010396;28;20065;-72
2022/08/20 09:17:20;;;;;;;10.60;2.20;;;;;;;-145.18;100.00;47129.22;5010684;28;20588;-73
2022/08/20 09:19:46;;;;;;;8.03;2.20;;;;;;;-145.18;100.00;47129.22;5010187;28;20022;-72
2022/08/20 09:22:14;;;;;;;9.37;2.03;;;;;;;-145.18;100.00;47127.28;5010470;28;20037;-72
2022/08/20 09:24:41;;;;;;;11.30;2.33;;;;;;;-145.18;100.00;47107.72;5000461;28;20044;-79
2022/08/20 09:27:06;;;;;;;10.33;2.37;;;;;;;-145.18;100.00;47123.38;4991113;28;20035;-80
2022/08/20 09:29:32;;;;;;;10.97;2.07;;;;;;;-145.18;100.00;47115.56;4991032;28;20031;-79
2022/08/20 09:32:15;;;;;;;8.87;2.10;;;;;;;-145.18;100.00;47115.56;4996260;28;20454;-79
2022/08/20 09:34:46;;;;;;;10.60;2.40;;;;;;;-145.18;100.00;47094.06;5010315;28;20029;-80
2022/08/20 09:37:13;;;;;;;9.63;2.20;;;;;;;-145.18;100.00;47094.06;5010554;28;20449;-80
2022/08/20 09:39:39;;;;;;;8.30;1.87;;;;;;;-145.18;100.00;47082.34;5010601;28;20036;-80
2022/08/20 09:42:15;;;;;;;7.60;2.03;;;;;;;-145.18;100.00;47088.19;5010405;28;20026;-80
2022/08/20 09:44:41;;;;;;;14.43;2.43;;;;;;;-145.18;100.00;47084.28;5010724;28;20498;-79
2022/08/20 09:47:07;;;;;;;13.20;2.90;;;;;;;-145.18;100.00;47086.25;5010507;28;20044;-80
2022/08/20 09:49:33;;;;;;;11.87;2.40;;;;;;;-145.18;100.00;47068.66;5010861;28;20105;-80
2022/08/20 09:52:00;;;;;;;8.63;2.80;;;;;;;-145.18;100.00;47076.47;5010356;28;20484;-80
2022/08/20 09:54:28;;;;;;;12.83;2.27;;;;;;;-145.18;100.00;47076.47;5010421;28;20030;-79
2022/08/20 09:56:59;;;;;;;12.17;2.33;;;;;;;-145.18;100.00;47074.53;5010302;28;20057;-80
2022/08/20 09:59:26;;;;;;;9.97;2.20;;;;;;;-145.18;100.00;47074.53;5011286;28;20490;-79
2022/08/20 10:01:51;;;;;;;11.60;2.70;;;;;;;-145.18;100.00;47074.53;5013045;28;20478;-79
2022/08/20 10:04:17;;;;;;;12.33;2.40;;;;;;;-145.18;100.00;47074.53;5012139;28;20104;-81
2022/08/20 10:06:42;;;;;;;8.47;2.20;;;;;;;-145.18;100.00;47047.19;5012238;28;20042;-77
2022/08/20 10:09:07;;;;;;;9.23;2.77;;;;;;;-145.18;100.00;47055.00;5012500;28;20033;-76
2022/08/20 10:11:33;;;;;;;13.07;3.60;;;;;;;-145.18;100.00;47053.03;5013464;28;20398;-76
2022/08/20 10:13:58;;;;;;;10.23;2.50;;;;;;;-145.18;100.00;47045.22;5009988;28;20038;-76
2022/08/20 10:16:23;;;;;;;15.13;2.42;;;;;;;-145.18;100.00;47043.28;5013226;28;20038;-75
2022/08/20 10:18:49;;;;;;;12.48;2.40;;;;;;;-145.18;100.00;47060.84;5012627;28;20105;-75
2022/08/20 10:21:15;;;;;;;10.63;2.35;;;;;;;-145.18;100.00;47062.81;5012918;28;20033;-75
2022/08/20 10:23:41;;;;;;;8.70;2.40;;;;;;;-145.18;100.00;47039.34;5013506;28;20033;-76
2022/08/20 10:26:08;;;;;;;10.90;2.28;;;;;;;-145.18;100.00;47029.59;5011976;28;20490;-76
2022/08/20 10:28:33;;;;;;;7.40;2.03;;;;;;;-145.18;100.00;47043.28;5013233;28;20486;-76
2022/08/20 10:30:59;;;;;;;12.52;3.03;;;;;;;-145.18;100.00;47078.44;5013394;28;20065;-76
2022/08/20 10:33:24;;;;;;;11.27;2.53;;;;;;;-145.18;100.00;47033.50;5013289;28;20470;-76
2022/08/20 10:35:50;;;;;;;13.95;2.58;;;;;;;-145.18;100.00;47076.47;5014189;28;20044;-76
2022/08/20 10:38:15;;;;;;;8.30;1.90;;;;;;;-145.18;100.00;47062.81;5013696;28;20034;-77
2022/08/20 10:40:40;;;;;;;12.52;2.92;;;;;;;-145.18;100.00;47072.56;5013649;28;20033;-76
2022/08/20 10:43:06;;;;;;;14.93;2.22;;;;;;;-145.18;100.00;47062.81;5013272;28;20119;-76
2022/08/20 10:45:31;;;;;;;9.50;2.07;;;;;;;-145.18;100.00;47092.09;5013041;28;20026;-76
2022/08/20 10:48:00;;;;;;;11.05;2.70;;;;;;;-145.18;100.00;47070.63;5012284;28;20026;-76
2022/08/20 10:50:25;;;;;;;9.80;2.50;;;;;;;-145.18;100.00;47080.38;5013168;28;20041;-77
2022/08/20 10:52:51;;;;;;;10.10;2.13;;;;;;;-145.18;100.00;47074.53;5013452;28;20401;-77
2022/08/20 10:55:16;;;;;;;12.70;2.73;;;;;;;-145.18;100.00;47088.19;5013405;28;20585;-77
2022/08/20 10:57:42;;;;;;;7.43;2.13;;;;;;;-145.18;100.00;47096.00;5013691;28;20034;-77
2022/08/20 11:00:10;;;;;;;13.07;3.80;;;;;;;-145.18;100.00;47074.53;5013346;28;20049;-77
2022/08/20 11:02:35;;;;;;;10.73;2.97;;;;;;;-145.18;100.00;47013.97;5013641;28;20068;-77
2022/08/20 11:05:01;;;;;;;13.85;3.40;;;;;;;-145.18;100.00;47049.13;5013157;28;20482;-76
2022/08/20 11:07:33;;;;;;;10.65;2.50;;;;;;;-145.18;100.00;47055.00;5013280;28;20045;-76
2022/08/20 11:09:59;;;;;;;14.05;2.90;;;;;;;-145.18;100.00;47047.19;5012691;28;20034;-77